• Join FlightAware (Why Join?)
  • Login
  • US Flag 
10:39PM EDT


 

Airport Tracker/Info


-or-


 

Live Flight TrackerFlight Track Log ✈ VH-CBT ✈ 18-Aug-2013 ✈ YBAF - YBUD / BDB

Flight Track Log - Related Links

Times and Time Zones

All times are in EDT time to prevent confusion due to time zone crossing. See the VH-CBT flight status page for this flight to view local times or setup timezone preferences in your user account.

Time Position Orientation Groundspeed Altitude Reporting Facility
EDT Latitude Longitude Course Direction KTS MPH feet Rate Location/Type
06:28AM -27.5940 152.9525 116° Southeast 143 165 1,400  Level Aus ATC (RADAR)
06:29AM -27.6104 152.9911 116° Southeast 128 147 1,800 420 Climbing Aus ATC (RADAR)
06:30AM -27.6104 153.0135 90° East 107 123 2,100 360 Climbing Aus ATC (RADAR)
06:31AM -27.5955 153.0248 34° Northeast 106 122 2,300 300 Climbing Aus ATC (RADAR)
06:31AM -27.5943 153.0458 86° East 111 128 2,500 420 Climbing Aus ATC (RADAR)
06:32AM -27.5926 153.0649 84° East 120 138 2,800 540 Climbing Aus ATC (RADAR)
06:32AM -27.5913 153.0856 86° East 115 132 3,100 660 Climbing Aus ATC (RADAR)
06:33AM -27.5882 153.1136 83° East 120 138 3,700 840 Climbing Aus ATC (RADAR)
06:34AM -27.5849 153.1323 79° East 122 140 4,200 900 Climbing Aus ATC (RADAR)
06:34AM -27.5815 153.1566 81° East 133 153 4,700 900 Climbing Aus ATC (RADAR)
06:35AM -27.5666 153.1725 43° Northeast 138 159 5,300 1,020 Climbing Aus ATC (RADAR)
06:36AM -27.5350 153.1681 353° North 108 124 6,400 1,020 Climbing Aus ATC (RADAR)
06:36AM -27.5202 153.1604 335° Northwest 113 130 6,900 960 Climbing Aus ATC (RADAR)
06:37AM -27.5030 153.1512 335° Northwest 114 131 7,500 960 Climbing Aus ATC (RADAR)
06:37AM -27.4877 153.1436 336° Northwest 118 136 8,000 1,020 Climbing Aus ATC (RADAR)
06:38AM -27.4622 153.1305 336° Northwest 120 138 8,900 960 Climbing Aus ATC (RADAR)
06:39AM -27.4462 153.1225 336° Northwest 123 142 9,300 900 Climbing Aus ATC (RADAR)
06:39AM -27.4275 153.1128 335° Northwest 123 142 9,900 960 Climbing Aus ATC (RADAR)
06:40AM -27.4113 153.1041 335° Northwest 126 145 10,400 960 Climbing Aus ATC (RADAR)
06:40AM -27.3953 153.0953 334° Northwest 126 145 10,900 960 Climbing Aus ATC (RADAR)
06:41AM -27.3734 153.0969 North 138 159 11,500 900 Climbing Aus ATC (RADAR)
06:42AM -27.3507 153.0986 North 138 159 12,000 960 Climbing Aus ATC (RADAR)
06:42AM -27.3325 153.0956 352° North 132 152 12,600 960 Climbing Aus ATC (RADAR)
06:43AM -27.3104 153.0945 358° North 135 155 13,100 840 Climbing Aus ATC (RADAR)
06:43AM -27.2843 153.0944 360° North 140 161 13,700 900 Climbing Aus ATC (RADAR)
06:44AM -27.2652 153.0936 358° North 138 159 14,200 360 Climbing Aus ATC (RADAR)
06:44AM -27.2392 153.0929 359° North 161 185 14,100 -120 Descending Aus ATC (RADAR)
06:45AM -27.2098 153.0924 359° North 180 207 14,100  Level Aus ATC (RADAR)
06:46AM -27.1758 153.0925 360° North 183 211 14,100  Level Aus ATC (RADAR)
06:46AM -27.1458 153.0928 360° North 184 212 14,100  Level Aus ATC (RADAR)
06:47AM -27.1112 153.0925 360° North 186 214 14,100  Level Aus ATC (RADAR)
06:48AM -27.0634 153.0924 360° North 187 215 14,100  Level Aus ATC (RADAR)
06:49AM -27.0197 153.0931 North 188 216 14,100  Level Aus ATC (RADAR)
06:50AM -26.9673 153.0919 359° North 189 217 14,100  Level Aus ATC (RADAR)
06:50AM -26.9321 153.0920 360° North 190 219 14,100  Level Aus ATC (RADAR)
06:51AM -26.8835 153.0914 359° North 191 220 14,100  Level Aus ATC (RADAR)
06:52AM -26.8478 153.0915 360° North 192 221 14,100  Level Aus ATC (RADAR)
06:53AM -26.7989 153.0908 359° North 192 221 14,100  Level Aus ATC (RADAR)
06:54AM -26.7499 153.0911 360° North 192 221 14,100  Level Aus ATC (RADAR)
06:55AM -26.7005 153.0904 359° North 194 223 14,100  Level Aus ATC (RADAR)
06:55AM -26.6644 153.0903 360° North 195 224 14,100  Level Aus ATC (RADAR)
06:56AM -26.6102 153.0896 359° North 196 226 14,100  Level Aus ATC (RADAR)
06:57AM -26.5759 153.0848 353° North 186 214 14,100  Level Aus ATC (RADAR)
06:58AM -26.5348 153.0603 332° Northwest 180 207 14,100  Level Aus ATC (RADAR)
06:59AM -26.4960 153.0422 337° Northwest 181 208 14,100  Level Aus ATC (RADAR)
07:00AM -26.4494 153.0215 338° Northwest 179 206 14,100  Level Aus ATC (RADAR)
07:00AM -26.4187 153.0071 337° Northwest 179 206 14,100  Level Aus ATC (RADAR)
07:01AM -26.3723 152.9859 338° Northwest 179 206 14,100  Level Aus ATC (RADAR)
07:02AM -26.3417 152.9718 338° Northwest 178 205 14,100  Level Aus ATC (RADAR)
07:03AM -26.2952 152.9503 337° Northwest 180 207 14,100  Level Aus ATC (RADAR)
07:04AM -26.2599 152.9341 338° Northwest 183 211 14,100  Level Aus ATC (RADAR)
07:05AM -26.2131 152.9130 338° Northwest 181 208 14,100  Level Aus ATC (RADAR)
07:06AM -26.1745 152.8951 337° Northwest 179 206 14,100  Level Aus ATC (RADAR)
07:06AM -26.1474 152.8819 336° Northwest 180 207 14,100  Level Aus ATC (RADAR)
07:07AM -26.1167 152.8686 339° North 177 204 14,100  Level Aus ATC (RADAR)
07:08AM -26.0703 152.8482 338° Northwest 177 204 14,100  Level Aus ATC (RADAR)
07:08AM -26.0393 152.8336 337° Northwest 178 205 14,100  Level Aus ATC (RADAR)
07:09AM -26.0084 152.8188 337° Northwest 179 206 14,100  Level Aus ATC (RADAR)
07:10AM -25.9815 152.8061 337° Northwest 178 205 14,100  Level Aus ATC (RADAR)
07:10AM -25.9539 152.7940 338° Northwest 180 207 14,100  Level Aus ATC (RADAR)
07:11AM -25.9267 152.7821 339° North 178 205 14,100  Level Aus ATC (RADAR)
07:11AM -25.9033 152.7712 337° Northwest 181 208 14,100  Level Aus ATC (RADAR)
07:12AM -25.8759 152.7580 337° Northwest 181 208 14,100  Level Aus ATC (RADAR)
07:13AM -25.8487 152.7461 339° North 178 205 14,100  Level Aus ATC (RADAR)
07:13AM -25.8256 152.7349 336° Northwest 179 206 14,100  Level Aus ATC (RADAR)
07:14AM -25.7982 152.7230 339° North 179 206 14,100  Level Aus ATC (RADAR)
07:14AM -25.7599 152.7052 337° Northwest 178 205 14,100  Level Aus ATC (RADAR)
07:15AM -25.7250 152.6894 338° Northwest 178 205 14,100  Level Aus ATC (RADAR)
07:16AM -25.6981 152.6767 337° Northwest 178 205 14,100  Level Aus ATC (RADAR)
07:16AM -25.6673 152.6627 338° Northwest 177 204 14,100  Level Aus ATC (RADAR)
07:17AM -25.6203 152.6418 338° Northwest 180 207 14,100  Level Aus ATC (RADAR)
07:18AM -25.5898 152.6272 337° Northwest 180 207 14,100  Level Aus ATC (RADAR)
07:19AM -25.5662 152.6179 341° North 179 206 14,100  Level Aus ATC (RADAR)
07:19AM -25.5326 152.6098 348° North 183 211 14,100 -660 Level Aus ATC (RADAR)
07:20AM -25.5018 152.5981 341° North 201 231 13,300 -1,320 Descending Aus ATC (RADAR)
07:20AM -25.4690 152.5843 339° North 215 247 12,600 -1,140 Descending Aus ATC (RADAR)
07:21AM -25.4347 152.5752 346° North 216 249 12,000 -1,200 Descending Aus ATC (RADAR)
07:22AM -25.3754 152.5551 343° North 225 259 10,700 -1,440 Descending Aus ATC (RADAR)
07:23AM -25.3406 152.5439 344° North 223 257 9,800 -1,380 Descending Aus ATC (RADAR)
07:23AM -25.3018 152.5310 343° North 218 251 9,000 -1,200 Descending Aus ATC (RADAR)
07:24AM -25.2692 152.5200 343° North 210 242 8,300 -1,500 Descending Aus ATC (RADAR)
07:25AM -25.2233 152.5053 344° North 208 239 6,900 -1,680 Descending Aus ATC (RADAR)
07:28AM -25.1297 152.4543 331° Northwest 100 -2,040 Descending Aus ATC (Calculated)
07:30AM -25.0805 152.4247 331° Northwest  Level FlightAware Approximate
07:31AM -25.0450 152.4034 331° Northwest  Level FlightAware Approximate
07:32AM -25.0094 152.3820 331° Northwest  Level FlightAware Approximate
07:33AM -24.9739 152.3607 331° Northwest  Level FlightAware Approximate
07:34AM -24.9383 152.3393 331° Northwest  Level FlightAware Approximate
07:35AM -24.9027 152.3180 331° Northwest  Level FlightAware Approximate
07:36AM -24.9039 152.3186 151° Southeast  Level Estimated